Time;durP1;ratioP1;P1;durP2;ratioP2;P2;SDS_P1;SDS_P2;PMS_P1;PMS_P2;Temp;Humidity;BMP_temperature;BMP_pressure;BME280_temperature;BME280_humidity;BME280_pressure;Samples;Min_cycle;Max_cycle;Signal;HPM_P1;HPM_P2
2024/03/22 00:02:37;;;;;;;90.50;44.90;;;;;;;7.62;74.34;99253.89;272694;1274;24287;-90
2024/03/22 00:10:20;;;;;;;85.40;45.80;;;;;;;7.64;75.29;99257.66;272193;1280;22569;-91
2024/03/22 02:01:29;;;;;;;83.70;44.90;;;;;;;7.69;82.00;99232.76;272038;1270;23678;-90
2024/03/22 02:07:31;;;;;;;91.30;46.70;;;;;;;7.73;82.78;99232.68;273011;1269;22234;-90
2024/03/22 02:13:33;;;;;;;86.50;43.50;;;;;;;7.73;82.73;99236.66;273066;1269;22396;-90
2024/03/22 02:19:35;;;;;;;82.20;40.30;;;;;;;7.76;82.83;99238.68;273023;1268;23338;-91
2024/03/22 02:25:38;;;;;;;82.50;43.10;;;;;;;7.79;83.21;99242.58;272225;1269;24484;-90
2024/03/22 02:31:40;;;;;;;85.30;43.30;;;;;;;7.78;83.84;99246.91;272473;1269;22666;-90
2024/03/22 02:37:43;;;;;;;86.90;44.80;;;;;;;7.83;85.25;99245.02;269143;1269;24581;-90
2024/03/22 02:43:45;;;;;;;84.10;44.50;;;;;;;7.95;86.70;99242.76;269438;1269;22671;-89
2024/03/22 02:49:47;;;;;;;80.00;42.20;;;;;;;8.12;87.79;99246.36;269524;1269;22548;-89
2024/03/22 02:55:49;;;;;;;75.90;38.90;;;;;;;8.24;88.12;99250.41;269809;1269;23202;-90
2024/03/22 03:01:51;;;;;;;78.10;41.50;;;;;;;8.28;88.53;99251.46;272960;1269;23555;-90
2024/03/22 03:07:53;;;;;;;80.00;43.20;;;;;;;8.32;88.65;99249.79;273012;1269;22490;-89
2024/03/22 03:13:57;;;;;;;79.30;43.00;;;;;;;8.37;88.84;99244.38;272909;1264;24606;-90
2024/03/22 03:19:59;;;;;;;80.00;42.50;;;;;;;8.42;89.30;99245.95;273077;1269;23884;-90
2024/03/22 03:26:01;;;;;;;81.30;42.80;;;;;;;8.47;89.55;99240.46;272975;1269;22231;-90
2024/03/22 03:32:03;;;;;;;80.50;44.70;;;;;;;8.55;89.92;99239.39;272714;1269;22436;-92
2024/03/22 03:38:05;;;;;;;83.00;45.40;;;;;;;8.65;89.87;99235.80;271630;1269;25428;-91
2024/03/22 03:44:07;;;;;;;80.10;44.60;;;;;;;8.73;89.77;99229.05;271879;1269;23660;-90
2024/03/22 03:50:09;;;;;;;78.90;43.50;;;;;;;8.75;90.48;99229.47;272984;1269;23103;-92
2024/03/22 03:56:14;;;;;;;75.50;42.40;;;;;;;8.74;91.33;99228.69;272939;1269;22404;-91
2024/03/22 04:02:16;;;;;;;79.30;43.00;;;;;;;8.78;91.95;99227.68;271705;1269;22808;-91
2024/03/22 04:08:18;;;;;;;79.90;43.40;;;;;;;8.84;92.27;99227.73;272923;1269;23815;-91
2024/03/22 04:14:20;;;;;;;72.40;41.10;;;;;;;8.89;93.02;99225.42;273121;1269;22264;-93
2024/03/22 04:20:22;;;;;;;71.60;40.20;;;;;;;8.91;93.74;99223.44;273095;1269;23722;-92
2024/03/22 04:26:26;;;;;;;68.70;38.30;;;;;;;8.92;94.46;99225.39;272007;1269;22560;-91
2024/03/22 04:32:28;;;;;;;59.20;34.60;;;;;;;8.91;94.88;99232.73;269723;1269;24265;-91
2024/03/22 04:38:30;;;;;;;57.20;34.30;;;;;;;8.94;94.87;99238.39;271833;1269;23795;-90
2024/03/22 04:44:35;;;;;;;55.60;33.20;;;;;;;8.96;96.00;99238.29;272828;1269;22462;-92
2024/03/22 04:50:39;;;;;;;62.60;35.50;;;;;;;9.00;96.29;99235.09;272661;1269;23170;-90
2024/03/22 04:56:41;;;;;;;57.00;33.80;;;;;;;9.02;96.47;99238.49;272717;1269;22456;-89
2024/03/22 05:02:43;;;;;;;58.60;34.00;;;;;;;9.04;96.78;99235.63;272684;1269;22347;-89
2024/03/22 05:08:45;;;;;;;53.50;32.40;;;;;;;9.06;97.14;99235.13;272816;1255;25488;-91
2024/03/22 05:14:49;;;;;;;54.60;31.50;;;;;;;9.09;97.59;99240.27;270108;1269;22638;-90
2024/03/22 05:20:51;;;;;;;52.90;32.10;;;;;;;9.14;98.04;99241.95;269928;1269;24363;-90
2024/03/22 05:26:53;;;;;;;58.60;31.80;;;;;;;9.19;99.01;99243.20;272210;1269;22295;-91
2024/03/22 05:32:55;;;;;;;49.20;30.40;;;;;;;9.23;99.69;99249.86;273049;1269;22407;-91
2024/03/22 05:38:57;;;;;;;54.00;32.50;;;;;;;9.28;100.00;99260.95;272931;1268;22262;-91
2024/03/22 05:44:59;;;;;;;51.90;31.80;;;;;;;9.34;100.00;99255.61;272950;1268;22453;-90
2024/03/22 05:51:01;;;;;;;49.10;31.10;;;;;;;9.41;100.00;99250.98;270241;1269;22528;-90
2024/03/22 05:57:05;;;;;;;55.20;31.60;;;;;;;9.47;100.00;99249.86;270366;1269;23783;-91
2024/03/22 06:03:07;;;;;;;46.80;29.00;;;;;;;9.52;100.00;99248.48;270018;1269;22572;-90
2024/03/22 06:09:13;;;;;;;47.20;29.30;;;;;;;9.57;100.00;99253.56;272850;1268;22541;-91
2024/03/22 06:15:15;;;;;;;41.60;27.70;;;;;;;9.61;100.00;99254.34;273070;1269;22800;-90
2024/03/22 06:21:25;;;;;;;41.30;26.80;;;;;;;9.68;100.00;99249.78;273060;1269;22307;-92
2024/03/22 06:27:27;;;;;;;48.80;30.50;;;;;;;9.76;100.00;99243.94;272878;1269;22241;-90
2024/03/22 06:33:29;;;;;;;45.60;29.00;;;;;;;9.90;100.00;99246.36;273050;1269;22386;-89
2024/03/22 06:39:37;;;;;;;45.10;27.40;;;;;;;10.02;100.00;99247.36;269882;1269;25280;-89
2024/03/22 06:45:39;;;;;;;42.60;27.00;;;;;;;10.11;100.00;99250.10;269867;1269;22563;-91
2024/03/22 06:51:41;;;;;;;40.40;26.50;;;;;;;10.21;100.00;99252.88;272308;1268;22297;-92
2024/03/22 06:57:47;;;;;;;47.20;29.90;;;;;;;10.33;100.00;99252.75;273021;1269;22389;-91
2024/03/22 07:03:48;;;;;;;41.90;27.50;;;;;;;10.47;100.00;99258.67;272925;1269;24282;-91
2024/03/22 07:09:51;;;;;;;40.30;25.40;;;;;;;10.55;100.00;99256.46;272933;1269;22344;-90
2024/03/22 07:15:52;;;;;;;38.20;25.30;;;;;;;10.60;100.00;99248.87;272703;1269;22395;-91
2024/03/22 07:21:55;;;;;;;41.40;26.00;;;;;;;10.59;99.89;99248.84;272816;1269;22287;-91
2024/03/22 07:27:57;;;;;;;43.10;27.70;;;;;;;10.53;99.57;99253.15;270981;1269;24176;-91
2024/03/22 07:33:59;;;;;;;37.10;24.90;;;;;;;10.43;99.37;99252.21;272947;1269;22229;-90
2024/03/22 07:40:02;;;;;;;38.90;25.30;;;;;;;10.32;99.87;99250.55;272872;1267;23051;-90
2024/03/22 07:46:05;;;;;;;42.80;28.40;;;;;;;10.23;100.00;99251.02;272712;1269;22498;-90
2024/03/22 07:52:07;;;;;;;43.20;28.90;;;;;;;10.14;100.00;99246.33;272172;1269;22272;-90
2024/03/22 07:58:11;;;;;;;41.70;27.90;;;;;;;10.06;100.00;99237.42;273115;1268;24254;-92
2024/03/22 08:04:14;;;;;;;42.70;29.10;;;;;;;10.06;100.00;99232.11;273010;1268;22388;-91
2024/03/22 08:10:17;;;;;;;48.90;30.50;;;;;;;10.06;100.00;99224.45;272883;1268;22441;-91
2024/03/22 08:16:19;;;;;;;44.90;28.50;;;;;;;10.06;100.00;99218.20;272182;1269;24480;-92
2024/03/22 08:22:21;;;;;;;42.70;28.40;;;;;;;10.08;100.00;99221.06;273254;1268;22419;-90
2024/03/22 08:28:23;;;;;;;46.40;27.90;;;;;;;10.09;100.00;99220.92;270353;1269;22637;-90
2024/03/22 08:34:26;;;;;;;43.20;28.10;;;;;;;10.12;100.00;99214.81;269843;1269;22738;-91
2024/03/22 08:40:28;;;;;;;46.60;30.20;;;;;;;10.17;100.00;99214.02;269759;1269;22597;-90
2024/03/22 08:46:32;;;;;;;45.60;28.40;;;;;;;10.26;100.00;99214.49;272194;1269;22419;-91
2024/03/22 08:52:35;;;;;;;42.60;25.60;;;;;;;10.34;100.00;99222.89;273359;1269;23104;-91
2024/03/22 08:58:40;;;;;;;44.00;22.30;;;;;;;10.41;100.00;99220.45;273028;1269;22392;-89
2024/03/22 09:04:42;;;;;;;29.30;18.90;;;;;;;10.46;100.00;99218.94;273145;1269;22262;-92
2024/03/22 09:10:44;;;;;;;27.90;16.80;;;;;;;10.55;99.69;99222.30;273076;1269;22419;-91
2024/03/22 09:16:45;;;;;;;31.00;17.90;;;;;;;10.67;99.19;99220.96;272942;1268;22585;-89
2024/03/22 09:22:47;;;;;;;26.00;17.20;;;;;;;10.84;98.84;99217.84;272976;1268;22571;-91
2024/03/22 09:28:52;;;;;;;29.40;18.90;;;;;;;11.11;98.17;99206.29;270074;1269;22616;-90
2024/03/22 09:34:54;;;;;;;29.80;17.90;;;;;;;11.40;97.63;99204.77;271320;1269;22266;-91
2024/03/22 09:40:56;;;;;;;23.30;13.60;;;;;;;11.59;96.78;99211.63;273010;1268;22431;-91
2024/03/22 09:46:59;;;;;;;20.50;12.60;;;;;;;11.59;95.40;99210.84;272936;1269;22228;-89
2024/03/22 09:53:04;;;;;;;20.80;13.20;;;;;;;11.47;94.37;99212.82;272855;1269;23287;-90
2024/03/22 09:59:15;;;;;;;21.70;13.80;;;;;;;11.25;93.50;99213.27;273002;1259;22939;-91
2024/03/22 10:05:17;;;;;;;20.80;12.70;;;;;;;11.06;93.75;99211.41;272973;1269;22424;-92
2024/03/22 10:11:19;;;;;;;24.10;14.30;;;;;;;10.99;93.82;99208.34;273114;1268;22655;-90
2024/03/22 10:17:21;;;;;;;27.00;14.50;;;;;;;10.93;93.72;99203.95;273056;1269;23496;-91
2024/03/22 10:23:22;;;;;;;27.80;16.90;;;;;;;10.97;93.89;99200.17;272662;1269;22705;-90
2024/03/22 10:29:24;;;;;;;22.80;15.20;;;;;;;11.02;93.85;99193.11;272645;1268;22411;-90
2024/03/22 10:35:26;;;;;;;21.70;15.90;;;;;;;11.07;93.29;99193.65;273079;1253;23677;-88
2024/03/22 10:41:28;;;;;;;24.40;17.20;;;;;;;11.11;93.01;99188.05;273034;1269;22275;-90
2024/03/22 10:47:34;;;;;;;25.10;16.60;;;;;;;11.35;92.72;99177.14;272748;1265;23141;-90
2024/03/22 10:53:36;;;;;;;26.90;16.90;;;;;;;11.45;91.86;99171.29;271787;1269;22681;-92
2024/03/22 10:59:41;;;;;;;34.20;18.30;;;;;;;11.49;91.79;99171.57;270048;1268;23243;-91
2024/03/22 11:05:48;;;;;;;24.50;17.70;;;;;;;11.60;91.48;99168.09;270343;1269;22447;-92
2024/03/22 11:11:52;;;;;;;26.80;20.10;;;;;;;11.75;91.20;99162.21;272282;1269;22445;-92
2024/03/22 11:17:55;;;;;;;29.70;19.30;;;;;;;12.13;91.92;99153.89;272616;1268;22335;-91
2024/03/22 11:23:57;;;;;;;24.40;17.80;;;;;;;12.79;91.26;99137.11;272763;1269;22423;-91
2024/03/22 11:30:05;;;;;;;25.80;17.60;;;;;;;13.14;89.43;99128.33;273594;1269;23222;-91
2024/03/22 11:36:08;;;;;;;24.20;17.00;;;;;;;13.24;88.19;99122.85;272037;1266;22260;-91
2024/03/22 11:42:14;;;;;;;23.00;17.70;;;;;;;13.46;87.68;99114.02;272600;1269;23094;-92
2024/03/22 11:48:17;;;;;;;21.30;15.60;;;;;;;13.75;86.13;99100.76;272938;1268;22396;-90
2024/03/22 11:54:20;;;;;;;25.10;15.80;;;;;;;13.86;84.60;99098.09;272979;1265;23512;-92
2024/03/22 12:00:33;;;;;;;21.60;15.50;;;;;;;13.69;82.88;99084.71;273003;1269;22420;-92
2024/03/22 12:06:37;;;;;;;21.70;15.50;;;;;;;13.25;82.38;99075.58;272971;1268;22491;-91
2024/03/22 12:12:53;;;;;;;21.80;16.20;;;;;;;13.03;83.32;99067.28;272954;1269;22248;-91
2024/03/22 12:19:03;;;;;;;24.10;16.40;;;;;;;13.10;83.50;99050.81;272121;1269;23738;-92
2024/03/22 12:25:12;;;;;;;24.30;16.90;;;;;;;13.33;83.20;99047.78;272926;1269;22267;-94
2024/03/22 12:31:17;;;;;;;20.90;14.80;;;;;;;13.42;82.47;99046.13;272555;1268;22606;-90
2024/03/22 12:37:19;;;;;;;25.30;17.30;;;;;;;13.45;82.62;99034.05;271013;1269;23405;-91
2024/03/22 12:43:28;;;;;;;26.10;18.10;;;;;;;13.53;81.83;99021.80;268384;1269;2506754;-91
2024/03/22 12:49:31;;;;;;;27.30;19.30;;;;;;;13.30;80.67;99027.43;271581;1269;24077;-91
2024/03/22 12:55:33;;;;;;;29.40;18.80;;;;;;;12.93;81.07;99029.78;272755;1268;23218;-91
2024/03/22 13:01:36;;;;;;;28.40;18.40;;;;;;;12.82;81.91;99025.75;272971;1268;23453;-91
2024/03/22 13:07:42;;;;;;;26.30;17.20;;;;;;;12.97;82.16;99021.96;272161;1269;22469;-92
2024/03/22 13:13:46;;;;;;;29.10;18.30;;;;;;;13.03;81.56;99012.64;272939;1269;22255;-91
2024/03/22 13:19:48;;;;;;;24.10;18.20;;;;;;;13.01;81.26;99013.09;272954;1269;22938;-92
2024/03/22 13:25:50;;;;;;;27.30;17.50;;;;;;;13.06;81.54;99010.84;273109;1269;22226;-92
2024/03/22 13:31:52;;;;;;;25.20;18.20;;;;;;;13.18;81.41;99001.11;272820;1269;23001;-91
2024/03/22 13:37:56;;;;;;;23.80;16.60;;;;;;;13.17;80.92;98995.55;273543;1269;23011;-91
2024/03/22 13:43:58;;;;;;;28.10;18.00;;;;;;;13.08;80.79;98991.60;272482;1269;23492;-92
2024/03/22 13:50:06;;;;;;;25.30;17.70;;;;;;;12.97;80.96;98978.92;271269;1268;22261;-93
2024/03/22 13:56:11;;;;;;;25.50;18.10;;;;;;;13.01;81.04;98971.96;273043;1268;22385;-92
2024/03/22 14:02:23;;;;;;;23.40;17.70;;;;;;;13.00;80.49;98962.54;272993;1269;23594;-92
2024/03/22 14:08:32;;;;;;;28.00;19.10;;;;;;;12.87;79.85;98960.30;272807;1269;23047;-91
2024/03/22 14:14:35;;;;;;;23.70;17.10;;;;;;;12.67;80.14;98960.98;272809;1268;22384;-92
2024/03/22 14:20:37;;;;;;;24.80;17.50;;;;;;;12.60;80.22;98959.08;272947;1263;22988;-92
2024/03/22 14:26:44;;;;;;;25.30;16.80;;;;;;;12.56;80.49;98954.20;272861;1268;22583;-92
2024/03/22 14:32:50;;;;;;;22.00;16.30;;;;;;;12.55;80.74;98948.94;272776;1269;22563;-92
2024/03/22 14:38:52;;;;;;;24.30;17.10;;;;;;;12.58;80.67;98946.67;271674;1268;23203;-92
2024/03/22 14:44:57;;;;;;;23.10;17.30;;;;;;;12.52;80.56;98934.58;272694;1269;22770;-91
2024/03/22 14:51:03;;;;;;;22.90;16.50;;;;;;;12.45;80.67;98928.37;269764;1268;22655;-93
2024/03/22 14:57:05;;;;;;;24.40;15.60;;;;;;;12.37;80.83;98928.04;271682;1269;23233;-92
2024/03/22 15:03:10;;;;;;;22.20;16.30;;;;;;;12.33;80.73;98918.38;271807;1269;22448;-93
2024/03/22 15:09:24;;;;;;;26.90;16.60;;;;;;;12.28;80.63;98911.15;272307;1268;22367;-94
2024/03/22 15:15:30;;;;;;;24.20;15.80;;;;;;;12.27;80.69;98902.98;273613;1272;22284;-91
2024/03/22 15:21:38;;;;;;;23.70;15.30;;;;;;;12.24;81.14;98902.66;270824;1269;22557;-92
2024/03/22 15:27:40;;;;;;;21.00;15.40;;;;;;;12.26;81.27;98897.96;270154;1269;22563;-91
2024/03/22 15:33:42;;;;;;;22.90;16.50;;;;;;;12.19;81.04;98894.25;271808;1269;23881;-91
2024/03/22 15:39:46;;;;;;;24.60;16.60;;;;;;;12.08;80.93;98889.52;270639;1269;22582;-92
2024/03/22 15:45:58;;;;;;;;;;;;;;;;;;;;;
2024/03/22 15:52:13;;;;;;;25.80;17.10;;;;;;;11.95;81.90;98883.36;272991;1268;22380;-92
2024/03/22 15:58:29;;;;;;;24.00;15.40;;;;;;;11.90;81.48;98882.79;273042;1269;22572;-92
2024/03/22 16:04:38;;;;;;;27.80;16.70;;;;;;;11.84;81.75;98879.39;272997;1269;22267;-92
2024/03/22 16:10:48;;;;;;;26.70;14.50;;;;;;;11.76;81.67;98875.52;272767;1269;22467;-91
2024/03/22 16:16:54;;;;;;;22.10;14.20;;;;;;;11.73;82.18;98871.36;272904;1269;22456;-91
2024/03/22 16:22:56;;;;;;;25.20;14.20;;;;;;;11.70;82.61;98870.71;273060;1269;22439;-91
2024/03/22 16:29:08;;;;;;;37.40;20.50;;;;;;;11.63;82.64;98872.09;272881;1269;22416;-91
2024/03/22 16:35:25;;;;;;;26.10;16.50;;;;;;;11.54;82.71;98866.13;272790;1268;23620;-92
2024/03/22 16:41:39;;;;;;;24.20;15.40;;;;;;;11.45;83.04;98866.48;272757;1269;22979;-91
2024/03/22 16:47:47;;;;;;;23.80;14.70;;;;;;;11.35;83.45;98865.34;272808;1269;22373;-92
2024/03/22 16:53:52;;;;;;;25.20;15.80;;;;;;;11.27;83.63;98868.42;272856;1269;23457;-91
2024/03/22 17:00:16;;;;;;;;;;;;;;;;;;;;;
2024/03/22 17:06:41;;;;;;;25.50;16.00;;;;;;;11.04;83.91;98867.09;270246;1266;23584;-91
2024/03/22 17:12:55;;;;;;;25.00;16.70;;;;;;;10.92;84.12;98862.63;272570;1269;23323;-91
2024/03/22 17:19:22;;;;;;;;;;;;;;;;;;;;;
2024/03/22 17:25:29;;;;;;;27.00;17.00;;;;;;;10.77;85.20;98856.86;265055;1269;10001307;-92
2024/03/22 17:31:35;;;;;;;26.00;17.20;;;;;;;10.71;85.46;98852.44;271674;1269;22475;-91
2024/03/22 17:38:21;;;;;;;31.20;19.10;;;;;;;10.65;85.81;98841.98;273422;1269;22351;-91
2024/03/22 17:45:02;;;;;;;30.70;19.50;;;;;;;10.60;86.42;98841.86;272854;1269;22516;-91
2024/03/22 17:51:16;;;;;;;27.80;16.80;;;;;;;10.52;86.95;98831.23;273444;1267;22303;-90
2024/03/22 17:57:33;;;;;;;36.80;19.40;;;;;;;10.41;87.68;98827.70;272797;1269;22484;-92
2024/03/22 18:03:57;;;;;;;31.90;18.90;;;;;;;10.32;88.39;98823.31;272754;1269;23106;-91
2024/03/22 18:10:31;;;;;;;35.00;23.20;;;;;;;10.21;89.15;98818.98;272901;1268;22171;-91
2024/03/22 18:16:39;;;;;;;45.40;27.00;;;;;;;10.06;89.41;98812.72;273742;1269;22270;-90
2024/03/22 18:23:17;;;;;;;41.00;25.40;;;;;;;10.02;90.62;98807.13;272907;1269;23373;-92
2024/03/22 18:54:26;;;;;;;39.80;24.80;;;;;;;9.93;91.92;98777.66;267422;1281;22567;-91
2024/03/22 19:09:07;;;;;;;40.10;27.40;;;;;;;9.81;92.45;98755.48;269663;1275;22279;-92
2024/03/22 19:15:56;;;;;;;40.90;27.10;;;;;;;9.81;92.58;98737.93;272144;1281;22269;-90
2024/03/22 19:22:46;;;;;;;43.90;28.80;;;;;;;9.81;92.74;98723.40;271358;1275;22289;-92
2024/03/22 19:30:01;;;;;;;;;;;;;;;;;;;;;
2024/03/22 19:38:09;;;;;;;;;;;;;;;;;;;;;
2024/03/22 19:45:48;;;;;;;;;;;;;;;;;;;;;
2024/03/22 19:53:17;;;;;;;58.10;35.50;;;;;;;9.78;93.57;98708.84;271849;1277;22874;-92
2024/03/22 19:59:47;;;;;;;59.20;34.10;;;;;;;9.80;93.84;98703.31;271824;1269;22379;-91
2024/03/22 20:07:25;;;;;;;;;;;;;;;;;;;;;
2024/03/22 20:14:11;;;;;;;65.70;36.20;;;;;;;9.80;94.75;98695.36;271884;1269;22447;-92
2024/03/22 20:20:15;;;;;;;59.90;36.80;;;;;;;9.80;94.96;98684.66;272884;1269;22251;-92
2024/03/22 20:26:20;;;;;;;50.50;33.20;;;;;;;9.80;95.41;98678.32;271373;1269;22593;-93
2024/03/22 20:32:54;;;;;;;50.40;30.20;;;;;;;9.76;95.92;98671.88;271031;1269;22503;-92
2024/03/22 20:39:09;;;;;;;;;;;;;;;;;;;;;
2024/03/22 20:45:11;;;;;;;44.00;27.50;;;;;;;9.76;95.49;98660.10;272856;1269;22374;-92
2024/03/22 20:51:15;;;;;;;41.30;25.30;;;;;;;9.77;95.36;98653.55;272868;1269;22278;-90
2024/03/22 20:57:19;;;;;;;38.50;23.00;;;;;;;9.79;95.00;98651.45;271632;1269;22556;-90
2024/03/22 21:03:22;;;;;;;31.20;18.70;;;;;;;9.84;94.70;98647.83;270834;1269;23492;-92
2024/03/22 21:09:25;;;;;;;31.20;17.60;;;;;;;9.91;94.26;98641.48;273101;1269;22192;-91
2024/03/22 21:15:29;;;;;;;24.80;16.70;;;;;;;9.96;93.86;98637.92;270265;1269;22559;-91
2024/03/22 21:21:33;;;;;;;25.50;16.10;;;;;;;10.00;93.57;98634.75;270501;1269;23317;-92
2024/03/22 21:27:53;;;;;;;25.30;14.00;;;;;;;10.03;93.23;98626.26;271304;1269;22557;-90
2024/03/22 21:33:54;;;;;;;26.20;14.30;;;;;;;10.03;92.92;98617.11;272240;1269;23258;-91
2024/03/22 21:39:56;;;;;;;21.80;13.10;;;;;;;10.06;92.70;98615.43;271278;1269;22356;-91
2024/03/22 21:46:11;;;;;;;22.50;13.60;;;;;;;10.08;92.35;98613.66;272889;1268;22638;-92
2024/03/22 21:52:13;;;;;;;18.70;13.20;;;;;;;10.10;91.96;98613.90;271237;1269;23832;-90
2024/03/22 21:58:16;;;;;;;21.90;12.60;;;;;;;10.13;91.68;98607.67;271501;1269;23283;-91
2024/03/22 22:04:21;;;;;;;24.20;12.90;;;;;;;10.11;91.62;98605.24;272767;1269;25191;-92
2024/03/22 22:10:23;;;;;;;23.90;12.90;;;;;;;10.09;91.83;98594.29;270423;1269;22570;-91
2024/03/22 22:16:35;;;;;;;20.30;12.30;;;;;;;10.05;91.88;98587.20;273005;1265;23166;-91
2024/03/22 22:22:40;;;;;;;23.60;13.40;;;;;;;10.04;91.78;98577.74;273009;1269;23002;-91
2024/03/22 22:28:42;;;;;;;23.60;13.20;;;;;;;10.02;91.62;98564.99;272885;1269;22303;-91
2024/03/22 22:34:44;;;;;;;19.90;11.80;;;;;;;10.05;91.24;98554.30;273086;1269;22427;-91
2024/03/22 22:40:46;;;;;;;20.50;11.10;;;;;;;10.04;91.32;98551.88;272984;1269;22397;-90
2024/03/22 22:46:55;;;;;;;18.40;11.10;;;;;;;10.01;91.30;98550.92;273021;1269;22401;-91
2024/03/22 22:52:57;;;;;;;19.00;11.20;;;;;;;9.98;91.22;98555.59;272884;1269;22247;-91
2024/03/22 22:58:59;;;;;;;20.10;10.80;;;;;;;9.95;91.69;98551.28;271391;1268;22549;-91
2024/03/22 23:05:01;;;;;;;20.10;11.10;;;;;;;9.93;91.37;98547.13;271327;1268;23861;-90
2024/03/22 23:11:04;;;;;;;17.90;10.70;;;;;;;9.91;90.77;98540.16;270413;1269;22555;-91
2024/03/22 23:17:06;;;;;;;20.20;12.60;;;;;;;9.91;90.73;98533.52;269896;1269;22580;-90
2024/03/22 23:23:08;;;;;;;19.50;12.30;;;;;;;9.92;90.41;98523.52;270946;1269;22365;-91
2024/03/22 23:29:12;;;;;;;28.00;17.70;;;;;;;9.90;90.23;98517.96;273082;1269;22396;-91
2024/03/22 23:35:14;;;;;;;28.10;17.50;;;;;;;9.85;89.86;98512.30;271059;1269;22408;-92
2024/03/22 23:41:17;;;;;;;34.60;21.10;;;;;;;9.83;89.63;98499.33;272173;1269;22416;-92
2024/03/22 23:47:19;;;;;;;39.30;22.70;;;;;;;9.82;89.37;98491.90;272974;1268;22342;-92
2024/03/22 23:53:23;;;;;;;32.70;19.50;;;;;;;9.83;88.98;98483.40;272460;1268;22523;-92
2024/03/22 23:59:28;;;;;;;36.30;22.10;;;;;;;9.82;88.77;98476.52;273076;1269;22683;-92
